Kondoa Airport


Codes: HTKD/
Name: Kondoa Airport
City: Kondoa
Country: Tanzania
Elevation: 4578 ft.

Photos at Kondoa Airport


   Photos courtesy of SpottingLog. You can add your own sightings and photos by signing up for a free trial today.



No photos found.

Weather at Kondoa Airport


Time (UTC)DescriptionTempratureWindCloud coverageVisibilityPressureHumidity
25-Jun-2024 15:00Scattered Clouds25°C4 mph, E33%10000m1013hPa30%
25-Jun-2024 18:00Scattered Clouds19°C7 mph, E40%10000m1016hPa51%
25-Jun-2024 21:00Few Clouds13°C2 mph, NE12%10000m1020hPa79%
26-Jun-2024 00:00Clear Sky11°C2 mph, NE9%10000m1018hPa86%
26-Jun-2024 03:00Few Clouds11°C2 mph, NE13%10000m1019hPa89%
26-Jun-2024 06:00Few Clouds18°C4 mph, NE19%10000m1020hPa56%
26-Jun-2024 09:00Clear Sky24°C7 mph, E6%10000m1017hPa31%
26-Jun-2024 12:00Clear Sky27°C9 mph, E4%10000m1013hPa23%
26-Jun-2024 15:00Clear Sky23°C7 mph, E6%10000m1014hPa35%
26-Jun-2024 18:00Few Clouds16°C4 mph, E11%10000m1018hPa67%
26-Jun-2024 21:00Clear Sky13°C4 mph, NE2%10000m1020hPa85%
27-Jun-2024 00:00Clear Sky12°C4 mph, NE10%10000m1019hPa93%
27-Jun-2024 03:00Broken Clouds11°C4 mph, NE54%10000m1020hPa95%
27-Jun-2024 06:00Broken Clouds17°C7 mph, E72%10000m1021hPa66%
27-Jun-2024 09:00Overcast Clouds24°C9 mph, E100%10000m1018hPa39%
27-Jun-2024 12:00Overcast Clouds26°C9 mph, E100%10000m1014hPa29%
27-Jun-2024 15:00Overcast Clouds21°C11 mph, E100%10000m1016hPa46%
27-Jun-2024 18:00Overcast Clouds15°C4 mph, E100%10000m1020hPa74%
27-Jun-2024 21:00Overcast Clouds12°C4 mph, NE94%10000m1021hPa91%
28-Jun-2024 00:00Overcast Clouds11°C4 mph, NE96%10000m1020hPa93%
28-Jun-2024 03:00Overcast Clouds11°C4 mph, NE96%10000m1021hPa94%
28-Jun-2024 06:00Overcast Clouds17°C4 mph, E90%10000m1021hPa67%
28-Jun-2024 09:00Overcast Clouds23°C9 mph, E88%10000m1018hPa43%
28-Jun-2024 12:00Broken Clouds26°C9 mph, NE63%10000m1014hPa33%
28-Jun-2024 15:00Broken Clouds23°C9 mph, NE84%10000m1015hPa42%
28-Jun-2024 18:00Broken Clouds17°C9 mph, E70%10000m1018hPa66%
28-Jun-2024 21:00Broken Clouds13°C4 mph, NE70%10000m1020hPa86%
29-Jun-2024 00:00Broken Clouds12°C2 mph, NE60%10000m1019hPa92%
29-Jun-2024 03:00Overcast Clouds11°C4 mph, NE100%10000m1020hPa92%
29-Jun-2024 06:00Overcast Clouds18°C4 mph, E94%10000m1020hPa60%
29-Jun-2024 09:00Overcast Clouds24°C7 mph, E89%10000m1017hPa36%
29-Jun-2024 12:00Overcast Clouds27°C4 mph, E94%10000m1013hPa29%
29-Jun-2024 15:00Overcast Clouds24°C4 mph, NE98%10000m1013hPa35%
29-Jun-2024 18:00Overcast Clouds19°C9 mph, E95%10000m1017hPa54%
29-Jun-2024 21:00Overcast Clouds14°C4 mph, NE88%10000m1019hPa84%
30-Jun-2024 00:00Overcast Clouds13°C4 mph, NE91%10000m1018hPa92%
30-Jun-2024 03:00Overcast Clouds12°C4 mph, NE100%10000m1019hPa96%
30-Jun-2024 06:00Overcast Clouds17°C4 mph, NE100%10000m1020hPa69%
30-Jun-2024 09:00Overcast Clouds23°C7 mph, E100%10000m1017hPa43%
30-Jun-2024 12:00Broken Clouds27°C4 mph, SE80%10000m1013hPa33%